createdAt,value
2022-10-31T06:03:27.050Z,19.00
2022-10-31T06:08:28.559Z,19.60
2022-10-31T06:10:57.290Z,20.10
2022-10-31T06:13:45.487Z,19.70
2022-10-31T06:16:25.224Z,21.40
2022-10-31T06:18:55.007Z,21.98
2022-10-31T06:21:21.851Z,24.67
2022-10-31T06:23:51.423Z,21.27
2022-10-31T06:26:44.505Z,22.23
2022-10-31T06:29:11.081Z,23.42
2022-10-31T06:31:57.359Z,24.58
2022-10-31T06:34:24.009Z,23.75
2022-10-31T06:36:51.171Z,24.10
2022-10-31T06:39:21.371Z,24.08
2022-10-31T06:41:49.661Z,22.48
2022-10-31T06:44:19.631Z,24.15
2022-10-31T06:46:56.139Z,24.13
2022-10-31T06:49:41.117Z,24.83
2022-10-31T06:52:20.772Z,22.65
2022-10-31T06:54:47.320Z,24.88
2022-10-31T06:57:15.377Z,26.23
2022-10-31T06:59:42.083Z,26.52
2022-10-31T07:02:11.288Z,27.52
2022-10-31T07:04:39.601Z,25.90
2022-10-31T07:07:07.564Z,27.13
2022-10-31T07:09:35.485Z,25.63
2022-10-31T07:12:04.709Z,26.65
2022-10-31T07:14:35.036Z,27.65
2022-10-31T07:17:02.879Z,29.50
2022-10-31T07:19:36.602Z,32.13
2022-10-31T07:22:03.846Z,31.65
2022-10-31T07:24:31.446Z,30.40
2022-10-31T07:27:17.423Z,34.72
2022-10-31T07:29:45.896Z,32.22
2022-10-31T07:32:13.562Z,33.88
2022-10-31T07:34:47.543Z,35.60
2022-10-31T07:37:23.316Z,38.17
2022-10-31T07:39:52.128Z,40.42
2022-10-31T07:42:19.346Z,38.53
2022-10-31T07:44:46.146Z,42.90
2022-10-31T07:47:42.103Z,38.50
2022-10-31T07:50:29.818Z,41.40
2022-10-31T07:53:17.631Z,43.35
2022-10-31T07:55:51.743Z,41.42
2022-10-31T07:58:19.959Z,44.85
2022-10-31T08:00:49.014Z,40.83
2022-10-31T08:03:28.257Z,44.58
2022-10-31T08:06:10.536Z,43.05
2022-10-31T08:08:39.713Z,44.35
2022-10-31T08:11:08.896Z,44.07
2022-10-31T08:13:35.762Z,44.35
2022-10-31T08:16:05.539Z,42.03
2022-10-31T08:18:38.354Z,42.60
2022-10-31T08:21:08.736Z,42.13
2022-10-31T08:23:35.759Z,43.97
2022-10-31T08:26:03.460Z,43.22
2022-10-31T08:28:30.628Z,42.00
2022-10-31T08:30:59.484Z,44.90
2022-10-31T08:33:41.718Z,42.13
2022-10-31T08:36:08.835Z,42.38
2022-10-31T08:38:56.568Z,42.38
2022-10-31T08:41:28.383Z,41.78
2022-10-31T08:43:55.105Z,42.78
2022-10-31T08:46:22.238Z,41.10
2022-10-31T08:48:49.888Z,41.85
2022-10-31T08:51:18.243Z,42.70
2022-10-31T08:53:45.230Z,39.70
2022-10-31T08:56:35.255Z,40.28
2022-10-31T08:59:05.534Z,38.95
2022-10-31T09:01:53.049Z,39.58
2022-10-31T09:04:19.822Z,42.80
2022-10-31T09:09:34.283Z,39.97
2022-10-31T09:12:01.486Z,40.10
2022-10-31T09:14:46.818Z,39.03
2022-10-31T09:17:31.220Z,41.38
2022-10-31T09:20:23.015Z,42.00
2022-10-31T09:22:58.292Z,41.17
2022-10-31T09:25:25.253Z,42.08
2022-10-31T09:28:16.185Z,40.55
2022-10-31T09:30:51.092Z,38.63
2022-10-31T09:33:33.012Z,38.20
2022-10-31T09:36:20.223Z,37.63
2022-10-31T09:38:46.751Z,34.35
2022-10-31T09:41:15.442Z,33.85
2022-10-31T09:44:09.629Z,33.13
2022-10-31T09:47:12.226Z,31.67
2022-10-31T09:49:49.280Z,30.98
2022-10-31T09:52:25.867Z,30.15
2022-10-31T09:55:01.173Z,25.73
2022-10-31T09:57:35.551Z,26.10
2022-10-31T10:00:05.898Z,24.45
2022-10-31T10:03:14.883Z,26.90
2022-10-31T10:05:58.554Z,20.75
2022-10-31T10:08:37.497Z,21.48
2022-10-31T10:11:59.371Z,19.50
2022-10-31T10:14:31.987Z,17.08
2022-10-31T10:17:13.760Z,17.08
2022-10-31T10:19:46.775Z,16.35
2022-10-31T10:22:17.012Z,15.07
2022-10-31T10:25:02.722Z,16.20
2022-10-31T10:27:48.564Z,15.98
2022-10-31T10:30:24.501Z,13.60
2022-10-31T10:32:55.753Z,14.45
2022-10-31T10:35:31.412Z,12.82
2022-10-31T10:38:16.212Z,12.15
2022-10-31T10:40:44.454Z,12.32
2022-10-31T10:43:39.398Z,12.38
2022-10-31T10:46:31.039Z,12.45
2022-10-31T10:49:13.697Z,12.07
2022-10-31T10:51:58.315Z,12.77
2022-10-31T10:54:50.892Z,11.50
2022-10-31T10:57:38.156Z,12.27
2022-10-31T11:00:31.423Z,12.20
2022-10-31T11:02:58.315Z,12.10
2022-10-31T11:05:37.705Z,12.05
2022-10-31T11:08:05.602Z,11.68
2022-10-31T11:10:33.510Z,10.35
2022-10-31T11:13:04.788Z,10.30
2022-10-31T11:15:38.051Z,11.43
2022-10-31T11:18:05.555Z,12.57
2022-10-31T11:20:37.181Z,12.45
2022-10-31T11:23:18.627Z,11.10
2022-10-31T11:26:01.231Z,12.68
2022-10-31T11:28:35.852Z,10.60
2022-10-31T11:31:13.280Z,11.27
2022-10-31T11:33:45.631Z,13.80
2022-10-31T11:36:28.368Z,12.80
2022-10-31T11:38:55.805Z,14.50
2022-10-31T11:41:32.972Z,14.40
2022-10-31T11:44:05.421Z,14.00
2022-10-31T11:46:36.939Z,13.73
2022-10-31T11:49:05.591Z,14.02
2022-10-31T11:51:35.973Z,12.13
2022-10-31T11:54:05.094Z,12.98
2022-10-31T11:56:42.713Z,13.32
2022-10-31T11:59:23.055Z,12.05
2022-10-31T12:01:52.542Z,11.88
2022-10-31T12:04:21.082Z,12.23
2022-10-31T12:06:48.890Z,14.05
2022-10-31T12:09:18.508Z,12.98
2022-10-31T12:12:07.082Z,12.45
2022-10-31T12:14:45.729Z,10.55
2022-10-31T12:17:21.275Z,10.98
2022-10-31T12:20:08.860Z,10.75
2022-10-31T12:22:49.182Z,11.38
2022-10-31T12:25:35.530Z,10.23
2022-10-31T12:28:25.722Z,11.95
2022-10-31T12:31:19.367Z,11.27
2022-10-31T12:34:11.503Z,10.43
2022-10-31T12:37:04.145Z,12.73
2022-10-31T12:39:58.422Z,12.82
2022-10-31T12:42:40.480Z,12.57
2022-10-31T12:45:34.268Z,11.82
2022-10-31T12:48:19.368Z,13.90
2022-10-31T12:50:53.601Z,12.55
2022-10-31T12:53:35.767Z,12.48
2022-10-31T12:56:34.916Z,11.48
2022-10-31T13:01:56.346Z,12.35
2022-10-31T13:04:46.571Z,11.93
2022-10-31T13:07:20.514Z,11.23
2022-10-31T13:10:04.796Z,11.35
2022-10-31T13:12:37.496Z,11.55
2022-10-31T13:15:26.829Z,10.90
2022-10-31T13:18:32.248Z,11.68
2022-10-31T13:21:01.154Z,10.90
2022-10-31T13:23:50.241Z,10.18
2022-10-31T13:26:39.299Z,9.50
2022-10-31T13:29:32.675Z,8.35
2022-10-31T13:32:05.019Z,8.93
2022-10-31T13:34:39.866Z,8.85
2022-10-31T13:37:25.077Z,8.60
2022-10-31T13:40:10.534Z,9.20
2022-10-31T13:42:55.837Z,8.18
2022-10-31T13:45:25.177Z,9.13
2022-10-31T13:48:17.069Z,7.85
2022-10-31T13:50:56.365Z,7.97
2022-10-31T13:53:36.336Z,8.68
2022-10-31T13:56:09.108Z,8.40
2022-10-31T13:58:37.561Z,8.23
2022-10-31T14:01:07.174Z,8.85
2022-10-31T14:04:03.633Z,9.30
2022-10-31T14:06:37.103Z,8.80
2022-10-31T14:09:05.024Z,8.65
2022-10-31T14:11:36.094Z,9.63
2022-10-31T14:14:11.885Z,12.52
2022-10-31T14:16:43.420Z,9.80
2022-10-31T14:19:19.959Z,9.63
2022-10-31T14:21:48.354Z,9.88
2022-10-31T14:24:24.343Z,9.88
2022-10-31T14:27:01.688Z,9.40
2022-10-31T14:29:34.088Z,9.02
2022-10-31T14:32:14.923Z,9.48
2022-10-31T14:34:44.686Z,9.82
2022-10-31T14:39:53.119Z,8.63
2022-10-31T14:42:52.676Z,9.73
2022-10-31T14:45:32.695Z,8.98
2022-10-31T14:48:11.524Z,9.02
2022-10-31T14:50:38.143Z,8.87
2022-10-31T14:53:07.546Z,9.88
2022-10-31T14:55:34.460Z,11.43
2022-10-31T14:58:07.336Z,9.35
2022-10-31T15:00:36.429Z,10.18
2022-10-31T15:05:41.633Z,10.25
2022-10-31T15:08:26.752Z,9.40
2022-10-31T15:10:53.345Z,8.73
2022-10-31T15:13:25.626Z,9.45
2022-10-31T15:15:55.508Z,9.75
2022-10-31T15:18:27.443Z,9.60
2022-10-31T15:20:56.398Z,9.63
2022-10-31T15:23:27.081Z,10.45
2022-10-31T15:26:01.779Z,14.80
2022-10-31T15:28:29.169Z,9.40
2022-10-31T15:31:02.017Z,9.90
2022-10-31T15:33:37.804Z,10.05
2022-10-31T15:36:06.959Z,9.13
2022-10-31T15:38:34.315Z,9.23
2022-10-31T15:41:43.088Z,9.98
2022-10-31T15:44:22.317Z,8.25
2022-10-31T15:46:57.945Z,9.40
2022-10-31T15:49:51.398Z,9.15
2022-10-31T15:52:27.382Z,9.57
2022-10-31T15:55:06.558Z,8.48
2022-10-31T16:00:00.994Z,8.50
2022-10-31T16:02:28.720Z,9.05
2022-10-31T16:05:01.941Z,9.00
2022-10-31T16:07:30.833Z,9.77
2022-10-31T16:10:00.157Z,9.55
2022-10-31T16:12:37.619Z,9.38
2022-10-31T16:15:05.808Z,9.80
2022-10-31T16:17:33.283Z,9.60
2022-10-31T16:20:03.596Z,9.57
2022-10-31T16:22:38.934Z,8.60
2022-10-31T16:25:26.371Z,8.98
2022-10-31T16:27:55.193Z,9.30
2022-10-31T16:30:48.497Z,8.45
2022-10-31T16:33:37.478Z,9.30
2022-10-31T16:36:35.190Z,9.38
2022-10-31T16:39:03.196Z,9.45
2022-10-31T16:41:29.758Z,8.88
2022-10-31T16:43:57.203Z,8.75
2022-10-31T16:46:26.603Z,8.65
2022-10-31T16:48:54.330Z,9.57
2022-10-31T16:51:21.239Z,8.93
2022-10-31T16:53:48.429Z,10.27
2022-10-31T16:56:28.803Z,8.85
2022-10-31T16:58:56.020Z,9.18
2022-10-31T17:01:23.027Z,8.73
2022-10-31T17:03:50.425Z,8.52
2022-10-31T17:06:17.715Z,9.73
2022-10-31T17:08:45.102Z,8.65
2022-10-31T17:11:29.493Z,9.23
2022-10-31T17:13:57.663Z,9.30
2022-10-31T17:16:24.256Z,10.05
2022-10-31T17:18:51.423Z,11.60
2022-10-31T17:21:26.314Z,11.20
2022-10-31T17:23:54.035Z,10.57
2022-10-31T17:26:20.911Z,9.90
2022-10-31T17:28:48.673Z,10.43
2022-10-31T17:31:36.585Z,11.82
2022-10-31T17:34:05.471Z,13.07
2022-10-31T17:36:35.955Z,14.27
2022-10-31T17:39:05.750Z,12.95
2022-10-31T17:44:00.456Z,12.10
2022-10-31T17:46:28.317Z,11.57
2022-10-31T17:48:55.694Z,12.00
2022-10-31T17:51:22.390Z,12.20
2022-10-31T17:53:49.602Z,13.25
2022-10-31T17:56:16.178Z,13.90
2022-10-31T17:58:43.528Z,13.27
2022-10-31T18:01:16.579Z,12.13
2022-10-31T18:03:44.474Z,13.32
2022-10-31T18:06:14.297Z,13.18
2022-10-31T18:08:41.671Z,13.38
2022-10-31T18:11:10.836Z,13.50
2022-10-31T18:13:39.103Z,13.63
2022-10-31T18:16:15.509Z,13.13
2022-10-31T18:18:42.743Z,13.57
2022-10-31T18:21:09.895Z,12.73
2022-10-31T18:23:40.230Z,13.77
2022-10-31T18:26:06.778Z,13.00
2022-10-31T18:28:33.940Z,13.63
2022-10-31T18:31:00.679Z,13.60
2022-10-31T18:33:28.410Z,14.27
2022-10-31T18:35:55.783Z,14.20
2022-10-31T18:38:23.818Z,12.77
2022-10-31T18:40:51.355Z,12.30
2022-10-31T18:43:18.636Z,13.18
2022-10-31T18:45:48.133Z,13.30
2022-10-31T18:48:17.796Z,11.80
2022-10-31T18:50:44.426Z,12.25
2022-10-31T18:53:13.807Z,11.32
2022-10-31T18:55:45.372Z,12.45
2022-10-31T18:58:16.779Z,11.70
2022-10-31T19:00:43.705Z,11.68
2022-10-31T19:03:10.950Z,12.13
2022-10-31T19:05:38.069Z,11.95
2022-10-31T19:08:06.013Z,12.00
2022-10-31T19:10:39.773Z,11.57
2022-10-31T19:13:07.332Z,11.15
2022-10-31T19:15:38.678Z,10.77
2022-10-31T19:18:06.030Z,11.55
2022-10-31T19:20:38.285Z,11.02
2022-10-31T19:23:05.223Z,10.98
2022-10-31T19:25:37.095Z,10.18
2022-10-31T19:28:06.277Z,10.73
2022-10-31T19:35:29.751Z,10.95
2022-10-31T19:37:56.427Z,11.25
2022-10-31T19:40:23.642Z,11.27
2022-10-31T19:42:50.168Z,11.48
2022-10-31T19:45:20.008Z,12.68
2022-10-31T19:47:46.986Z,11.05
2022-10-31T19:50:13.522Z,11.73
2022-10-31T19:52:40.710Z,11.30
2022-10-31T19:55:09.817Z,11.05
2022-10-31T19:58:00.258Z,11.25
2022-10-31T20:00:24.554Z,11.95
2022-10-31T20:02:51.114Z,10.45
2022-10-31T20:05:18.668Z,16.60
2022-10-31T20:07:45.248Z,12.90
2022-10-31T20:10:12.342Z,11.38
2022-10-31T20:12:39.615Z,10.13
2022-10-31T20:15:06.676Z,11.60
2022-10-31T20:17:33.952Z,12.13
2022-10-31T20:20:17.977Z,11.00
2022-10-31T20:22:49.758Z,11.35
2022-10-31T20:25:17.912Z,12.32
2022-10-31T20:27:44.579Z,10.85
2022-10-31T20:30:12.119Z,11.13
2022-10-31T20:32:38.795Z,10.82
2022-10-31T20:35:06.453Z,10.43
2022-10-31T20:37:33.085Z,10.02
2022-10-31T20:40:00.246Z,10.52
2022-10-31T20:42:26.810Z,10.98
2022-10-31T20:44:53.660Z,10.77
2022-10-31T20:47:24.935Z,11.10
2022-10-31T20:49:53.037Z,10.50
2022-10-31T20:52:20.168Z,10.35
2022-10-31T20:54:46.794Z,10.10
2022-10-31T20:57:20.329Z,9.77
2022-10-31T20:59:51.499Z,9.52
2022-10-31T21:02:18.403Z,8.95
2022-10-31T21:04:45.794Z,9.35
2022-10-31T21:07:12.409Z,9.65
2022-10-31T21:09:39.286Z,9.10
2022-10-31T21:12:07.069Z,10.52
2022-10-31T21:14:33.982Z,10.15
2022-10-31T21:17:01.254Z,11.98
2022-10-31T21:19:27.855Z,12.07
2022-10-31T21:21:55.074Z,12.68
2022-10-31T21:24:23.185Z,10.63
2022-10-31T21:26:52.358Z,9.98
2022-10-31T21:29:20.287Z,10.00
